KAKO/AKO METAR and TAF weather

Enter ICAO airport designator
Station Type Date Time Source
KAKO METAR 2019/08/22 08:53 UTC NOAA

KAKO 220853Z AUTO 02016G31KT 10SM VCTS -RA FEW007 BKN019 OVC024 14/13 A3014 RMK AO2 PK WND 36031/0847 WSHFT 0835 LTG DSNT N-E RAB49 SLP152 P0000 60000 T01440128 55002 $


Station Type Date Time Source
KAKO Decoded METAR 2019/08/22 08:53 UTC NOAA

Station name not available
Aug 22, 2019 - 04:53 AM EDT / 2019.08.22 0853 UTC
Wind: from the NNE (020 degrees) at 18 MPH (16 KT) gusting to 36 MPH (31 KT):0
Visibility: 10 mile(s):0
Sky conditions: overcast
Weather: thunder in the vicinity; light rain; Lightning observed
Precipitation last hour: A trace
Temperature: 57.9 F (14.4 C)
Dew Point: 55.0 F (12.8 C)
Relative Humidity: 90%
Pressure (altimeter): 30.14 in. Hg (1020 hPa)
Pressure tendency: 0.01 inches (0.2 hPa) lower than three hours ago
ob: KAKO 220853Z AUTO 02016G31KT 10SM VCTS -RA FEW007 BKN019 OVC024 14/13 A3014 RMK AO2 PK WND 36031/0847 WSHFT 0835 LTG DSNT N-E RAB49 SLP152 P0000 60000 T01440128 55002
cycle: 9

Station Type Date Time Source
KAKO TAF UTC NOAA

Error!

Example: see airport list